createdAt,value
2022-08-04T00:02:25.373Z,20.75
2022-08-04T00:05:00.987Z,20.66
2022-08-04T00:07:53.414Z,20.64
2022-08-04T00:10:22.316Z,20.68
2022-08-04T00:12:52.043Z,20.66
2022-08-04T00:15:18.988Z,20.70
2022-08-04T00:17:49.816Z,20.60
2022-08-04T00:20:18.926Z,20.59
2022-08-04T00:22:46.827Z,20.57
2022-08-04T00:25:13.857Z,20.51
2022-08-04T00:27:40.803Z,20.56
2022-08-04T00:30:07.987Z,20.59
2022-08-04T00:32:34.946Z,20.46
2022-08-04T00:35:01.747Z,20.41
2022-08-04T00:37:28.768Z,20.50
2022-08-04T00:39:56.631Z,20.40
2022-08-04T00:42:49.490Z,20.37
2022-08-04T00:45:25.877Z,20.36
2022-08-04T00:48:15.156Z,20.40
2022-08-04T00:50:45.825Z,20.44
2022-08-04T00:53:19.891Z,20.33
2022-08-04T00:56:18.470Z,20.32
2022-08-04T00:59:04.119Z,20.26
2022-08-04T01:01:49.436Z,20.17
2022-08-04T01:04:42.426Z,20.17
2022-08-04T01:07:22.499Z,20.19
2022-08-04T01:10:15.531Z,20.17
2022-08-04T01:13:15.391Z,20.08
2022-08-04T01:16:03.312Z,20.08
2022-08-04T01:18:56.205Z,20.07
2022-08-04T01:21:56.288Z,20.01
2022-08-04T01:24:28.409Z,20.11
2022-08-04T01:27:03.917Z,20.12
2022-08-04T01:29:50.541Z,20.14
2022-08-04T01:32:25.464Z,20.12
2022-08-04T01:34:57.307Z,20.02
2022-08-04T01:37:57.313Z,20.02
2022-08-04T01:40:26.856Z,20.05
2022-08-04T01:42:53.862Z,19.95
2022-08-04T01:45:20.885Z,19.97
2022-08-04T01:47:52.146Z,20.01
2022-08-04T01:50:18.724Z,20.04
2022-08-04T01:52:50.519Z,20.07
2022-08-04T01:55:18.200Z,20.16
2022-08-04T01:57:50.056Z,20.19
2022-08-04T02:00:21.532Z,20.22
2022-08-04T02:02:49.663Z,20.22
2022-08-04T02:05:18.159Z,20.23
2022-08-04T02:08:05.329Z,20.20
2022-08-04T02:11:05.078Z,20.25
2022-08-04T02:13:53.422Z,20.23
2022-08-04T02:16:29.495Z,20.21
2022-08-04T02:19:04.484Z,20.14
2022-08-04T02:21:42.104Z,20.15
2022-08-04T02:24:14.934Z,20.09
2022-08-04T02:26:43.357Z,20.06
2022-08-04T02:29:35.690Z,20.13
2022-08-04T02:32:07.465Z,19.99
2022-08-04T02:34:45.936Z,20.08
2022-08-04T02:37:12.600Z,20.05
2022-08-04T02:39:49.203Z,20.06
2022-08-04T02:42:16.802Z,19.96
2022-08-04T02:44:43.469Z,20.01
2022-08-04T02:47:11.099Z,20.00
2022-08-04T02:49:40.568Z,19.99
2022-08-04T02:52:10.951Z,19.82
2022-08-04T02:54:45.707Z,19.90
2022-08-04T02:57:13.455Z,19.94
2022-08-04T02:59:58.447Z,19.82
2022-08-04T03:02:47.466Z,19.77
2022-08-04T03:05:18.659Z,19.82
2022-08-04T03:07:56.834Z,19.84
2022-08-04T03:10:23.313Z,19.78
2022-08-04T03:13:21.427Z,19.75
2022-08-04T03:16:06.126Z,19.86
2022-08-04T03:18:47.808Z,19.79
2022-08-04T03:21:46.132Z,19.75
2022-08-04T03:24:54.458Z,19.81
2022-08-04T03:27:37.740Z,19.86
2022-08-04T03:30:06.851Z,19.88
2022-08-04T03:32:45.612Z,19.84
2022-08-04T03:35:54.100Z,19.71
2022-08-04T03:38:29.440Z,19.73
2022-08-04T03:41:10.075Z,19.84
2022-08-04T03:43:57.752Z,19.81
2022-08-04T03:46:44.312Z,19.77
2022-08-04T03:49:40.271Z,19.80
2022-08-04T03:53:01.439Z,19.83
2022-08-04T03:55:46.201Z,19.78
2022-08-04T03:58:34.563Z,19.78
2022-08-04T04:01:45.168Z,19.81
2022-08-04T04:04:23.753Z,19.74
2022-08-04T04:07:34.145Z,19.79
2022-08-04T04:10:34.557Z,19.73
2022-08-04T04:13:16.277Z,19.79
2022-08-04T04:15:52.100Z,19.91
2022-08-04T04:18:48.899Z,19.92
2022-08-04T04:21:34.390Z,19.92
2022-08-04T04:24:36.208Z,20.03
2022-08-04T04:27:09.176Z,20.04
2022-08-04T04:30:13.198Z,20.12
2022-08-04T04:32:58.238Z,20.16
2022-08-04T04:35:34.493Z,20.13
2022-08-04T04:38:01.392Z,20.27
2022-08-04T04:40:57.000Z,20.31
2022-08-04T04:43:50.376Z,20.45
2022-08-04T04:46:39.817Z,20.45
2022-08-04T04:49:27.264Z,20.44
2022-08-04T04:52:08.968Z,20.52
2022-08-04T04:54:50.094Z,20.59
2022-08-04T04:57:19.379Z,20.73
2022-08-04T04:59:50.013Z,20.79
2022-08-04T05:02:37.332Z,20.74
2022-08-04T05:05:22.295Z,20.93
2022-08-04T05:08:43.631Z,20.97
2022-08-04T05:10:58.099Z,21.06
2022-08-04T05:14:35.657Z,21.16
2022-08-04T05:16:19.353Z,21.31
2022-08-04T05:18:50.093Z,21.38
2022-08-04T05:21:39.854Z,21.43
2022-08-04T05:24:09.621Z,21.60
2022-08-04T05:26:40.984Z,21.71
2022-08-04T05:29:10.317Z,21.76
2022-08-04T05:31:39.310Z,21.67
2022-08-04T05:34:09.623Z,21.79
2022-08-04T05:36:45.390Z,22.01
2022-08-04T05:39:16.891Z,22.02
2022-08-04T05:41:45.696Z,22.21
2022-08-04T05:44:17.086Z,22.39
2022-08-04T05:46:54.657Z,22.55
2022-08-04T05:49:24.122Z,22.69
2022-08-04T05:51:51.315Z,22.77
2022-08-04T05:54:18.870Z,22.97
2022-08-04T05:56:45.497Z,23.25
2022-08-04T05:59:12.931Z,23.90
2022-08-04T06:01:55.596Z,24.68
2022-08-04T06:04:27.175Z,25.46
2022-08-04T06:06:54.605Z,26.32
2022-08-04T06:09:21.238Z,27.23
2022-08-04T06:12:03.583Z,28.27
2022-08-04T06:14:41.585Z,28.98
2022-08-04T06:18:32.437Z,30.05
2022-08-04T06:20:17.874Z,30.84
2022-08-04T06:22:45.221Z,30.95
2022-08-04T06:25:15.510Z,32.18
2022-08-04T06:27:43.345Z,32.84
2022-08-04T06:30:14.514Z,32.64
2022-08-04T06:32:48.093Z,33.37
2022-08-04T06:35:17.860Z,33.26
2022-08-04T06:37:45.823Z,32.71
2022-08-04T06:40:31.992Z,32.93
2022-08-04T06:43:04.715Z,32.01
2022-08-04T06:45:37.107Z,32.18
2022-08-04T06:48:05.844Z,33.34
2022-08-04T06:51:25.817Z,32.78
2022-08-04T06:53:24.808Z,33.95
2022-08-04T06:55:52.122Z,34.70
2022-08-04T06:58:20.737Z,34.63
2022-08-04T07:00:48.334Z,35.72
2022-08-04T07:03:16.970Z,36.13
2022-08-04T07:05:43.776Z,36.12
2022-08-04T07:08:11.630Z,35.49
2022-08-04T07:10:39.069Z,36.30
2022-08-04T07:13:07.409Z,35.99
2022-08-04T07:15:36.236Z,36.78
2022-08-04T07:18:04.800Z,37.39
2022-08-04T07:20:36.184Z,37.48
2022-08-04T07:23:04.849Z,38.18
2022-08-04T07:25:59.491Z,38.80
2022-08-04T07:28:22.685Z,37.34
2022-08-04T07:30:49.672Z,37.92
2022-08-04T07:33:17.428Z,37.55
2022-08-04T07:36:09.598Z,38.08
2022-08-04T07:38:31.244Z,37.77
2022-08-04T07:41:00.222Z,38.19
2022-08-04T07:43:27.698Z,37.98
2022-08-04T07:45:54.417Z,36.73
2022-08-04T07:48:23.309Z,35.43
2022-08-04T07:50:50.559Z,34.38
2022-08-04T07:53:54.290Z,33.85
2022-08-04T07:56:05.110Z,32.80
2022-08-04T07:58:32.115Z,32.31
2022-08-04T08:00:59.130Z,31.68
2022-08-04T08:03:26.862Z,31.09
2022-08-04T08:05:54.754Z,30.92
2022-08-04T08:08:40.781Z,30.69
2022-08-04T08:11:08.098Z,30.98
2022-08-04T08:13:35.325Z,31.39
2022-08-04T08:16:02.764Z,31.21
2022-08-04T08:18:30.148Z,31.47
2022-08-04T08:20:57.110Z,31.76
2022-08-04T08:23:24.553Z,31.91
2022-08-04T08:25:51.853Z,31.72
2022-08-04T08:28:18.489Z,31.39
2022-08-04T08:30:45.438Z,31.24
2022-08-04T08:33:19.727Z,31.45
2022-08-04T08:36:01.956Z,31.38
2022-08-04T08:38:57.514Z,31.47
2022-08-04T08:42:06.197Z,31.29
2022-08-04T08:45:03.939Z,30.79
2022-08-04T08:48:06.120Z,30.18
2022-08-04T08:50:52.015Z,30.32
2022-08-04T08:53:47.616Z,29.99
2022-08-04T08:56:33.341Z,29.98
2022-08-04T08:59:27.785Z,30.48
2022-08-04T09:02:07.231Z,30.67
2022-08-04T09:04:48.555Z,30.54
2022-08-04T09:07:53.468Z,29.99
2022-08-04T09:10:33.107Z,29.84
2022-08-04T09:13:05.680Z,29.50
2022-08-04T09:15:33.234Z,29.48
2022-08-04T09:18:07.822Z,29.46
2022-08-04T09:20:46.932Z,29.49
2022-08-04T09:23:20.986Z,29.53
2022-08-04T09:26:29.682Z,29.60
2022-08-04T09:29:07.881Z,29.79
2022-08-04T09:31:51.409Z,29.96
2022-08-04T09:34:45.490Z,30.15
2022-08-04T09:37:29.190Z,29.96
2022-08-04T09:40:04.598Z,29.83
2022-08-04T09:42:41.772Z,29.91
2022-08-04T09:45:26.596Z,29.68
2022-08-04T09:48:00.547Z,29.97
2022-08-04T09:50:34.928Z,29.99
2022-08-04T09:54:02.498Z,29.85
2022-08-04T09:56:58.216Z,29.72
2022-08-04T09:59:30.707Z,29.76
2022-08-04T10:02:00.239Z,29.92
2022-08-04T10:04:29.592Z,29.98
2022-08-04T10:07:21.660Z,29.77
2022-08-04T10:10:10.235Z,29.53
2022-08-04T10:12:51.341Z,29.50
2022-08-04T10:15:21.347Z,29.39
2022-08-04T10:18:08.369Z,29.31
2022-08-04T10:20:55.580Z,29.34
2022-08-04T10:23:55.866Z,29.48
2022-08-04T10:26:33.369Z,29.42
2022-08-04T10:29:11.156Z,29.60
2022-08-04T10:31:44.441Z,29.73
2022-08-04T10:34:24.643Z,29.58
2022-08-04T10:37:05.047Z,29.71
2022-08-04T10:39:42.270Z,29.78
2022-08-04T10:42:18.207Z,29.88
2022-08-04T10:45:15.734Z,29.66
2022-08-04T10:48:14.253Z,29.49
2022-08-04T10:50:49.215Z,29.43
2022-08-04T10:53:21.005Z,29.35
2022-08-04T10:56:07.477Z,29.40
2022-08-04T10:58:47.763Z,29.23
2022-08-04T11:02:00.795Z,29.02
2022-08-04T11:04:31.738Z,29.19
2022-08-04T11:06:59.657Z,29.24
2022-08-04T11:09:27.167Z,29.39
2022-08-04T11:12:02.022Z,29.37
2022-08-04T11:14:38.834Z,29.13
2022-08-04T11:17:08.484Z,29.00
2022-08-04T11:19:52.776Z,29.17
2022-08-04T11:22:25.972Z,29.23
2022-08-04T11:25:05.510Z,29.46
2022-08-04T11:27:41.149Z,29.34
2022-08-04T11:30:09.707Z,29.45
2022-08-04T11:32:46.386Z,29.73
2022-08-04T11:35:19.537Z,30.11
2022-08-04T11:37:50.444Z,30.21
2022-08-04T11:40:23.465Z,30.27
2022-08-04T11:43:02.685Z,30.23
2022-08-04T11:45:37.736Z,30.03
2022-08-04T11:48:10.491Z,30.11
2022-08-04T11:50:42.342Z,30.13
2022-08-04T11:53:15.653Z,30.17
2022-08-04T11:56:09.136Z,30.20
2022-08-04T11:58:30.645Z,30.54
2022-08-04T12:01:20.044Z,30.58
2022-08-04T12:04:06.033Z,30.48
2022-08-04T12:07:30.099Z,30.54
2022-08-04T12:10:41.109Z,30.44
2022-08-04T12:13:28.637Z,30.49
2022-08-04T12:16:05.864Z,30.38
2022-08-04T12:18:40.634Z,30.24
2022-08-04T12:21:26.653Z,30.38
2022-08-04T12:24:02.554Z,30.53
2022-08-04T12:26:35.394Z,30.68
2022-08-04T12:29:10.977Z,30.97
2022-08-04T12:31:49.683Z,30.75
2022-08-04T12:34:30.927Z,30.84
2022-08-04T12:37:38.820Z,30.92
2022-08-04T12:40:28.856Z,30.74
2022-08-04T12:43:01.990Z,30.67
2022-08-04T12:45:29.509Z,30.88
2022-08-04T12:47:58.172Z,30.74
2022-08-04T12:50:25.417Z,30.53
2022-08-04T12:53:03.530Z,30.49
2022-08-04T12:55:31.867Z,30.47
2022-08-04T12:57:59.013Z,30.13
2022-08-04T13:00:40.001Z,30.34
2022-08-04T13:03:11.501Z,30.82
2022-08-04T13:05:40.866Z,30.78
2022-08-04T13:08:09.375Z,30.78
2022-08-04T13:10:45.229Z,31.08
2022-08-04T13:13:15.564Z,31.31
2022-08-04T13:15:47.489Z,31.48
2022-08-04T13:18:28.950Z,31.62
2022-08-04T13:21:22.843Z,31.34
2022-08-04T13:24:10.293Z,30.97
2022-08-04T13:26:55.305Z,30.91
2022-08-04T13:29:58.948Z,30.98
2022-08-04T13:32:11.632Z,31.47
2022-08-04T13:34:41.435Z,31.51
2022-08-04T13:37:20.869Z,31.23
2022-08-04T13:39:55.993Z,31.07
2022-08-04T13:42:24.961Z,31.13
2022-08-04T13:44:57.828Z,31.00
2022-08-04T13:47:30.916Z,31.27
2022-08-04T13:50:26.306Z,31.35
2022-08-04T13:52:54.354Z,31.64
2022-08-04T13:55:35.777Z,31.60
2022-08-04T13:58:07.635Z,31.67
2022-08-04T14:01:00.192Z,31.60
2022-08-04T14:03:54.160Z,31.76
2022-08-04T14:06:25.529Z,31.89
2022-08-04T14:08:53.666Z,32.07
2022-08-04T14:12:09.846Z,32.17
2022-08-04T14:14:26.762Z,32.12
2022-08-04T14:17:20.350Z,32.25
2022-08-04T14:19:48.573Z,32.29
2022-08-04T14:22:27.382Z,32.31
2022-08-04T14:25:16.117Z,32.02
2022-08-04T14:27:48.837Z,32.29
2022-08-04T14:30:36.288Z,32.55
2022-08-04T14:34:00.474Z,32.63
2022-08-04T14:36:01.756Z,32.52
2022-08-04T14:38:44.233Z,32.33
2022-08-04T14:41:10.897Z,32.02
2022-08-04T14:43:45.125Z,32.23
2022-08-04T14:46:12.854Z,32.37
2022-08-04T14:48:47.053Z,32.23
2022-08-04T14:51:16.196Z,32.42
2022-08-04T14:53:47.634Z,32.10
2022-08-04T14:56:37.516Z,32.06
2022-08-04T14:59:08.772Z,31.94
2022-08-04T15:01:36.771Z,31.66
2022-08-04T15:04:04.537Z,32.01
2022-08-04T15:06:33.228Z,32.18
2022-08-04T15:09:07.075Z,32.23
2022-08-04T15:11:38.942Z,32.32
2022-08-04T15:14:08.649Z,32.34
2022-08-04T15:16:55.413Z,32.26
2022-08-04T15:19:22.678Z,32.08
2022-08-04T15:21:49.672Z,31.94
2022-08-04T15:24:16.329Z,31.76
2022-08-04T15:26:48.725Z,31.84
2022-08-04T15:29:28.933Z,31.93
2022-08-04T15:32:07.864Z,31.94
2022-08-04T15:34:52.195Z,31.72
2022-08-04T15:37:27.269Z,31.71
2022-08-04T15:40:00.264Z,31.83
2022-08-04T15:43:08.776Z,31.65
2022-08-04T15:46:37.102Z,31.14
2022-08-04T15:48:35.332Z,30.83
2022-08-04T15:51:08.475Z,30.81
2022-08-04T15:54:02.841Z,30.82
2022-08-04T15:56:27.767Z,31.05
2022-08-04T15:58:55.432Z,31.15
2022-08-04T16:01:22.107Z,30.94
2022-08-04T16:03:59.912Z,30.96
2022-08-04T16:06:29.498Z,31.05
2022-08-04T16:09:01.538Z,30.58
2022-08-04T16:11:33.441Z,30.65
2022-08-04T16:14:02.052Z,30.71
2022-08-04T16:16:38.640Z,30.59
2022-08-04T16:19:06.184Z,30.76
2022-08-04T16:21:47.168Z,30.63
2022-08-04T16:24:22.324Z,30.32
2022-08-04T16:26:56.266Z,30.40
2022-08-04T16:29:23.002Z,30.28
2022-08-04T16:32:05.023Z,30.34
2022-08-04T16:34:48.458Z,30.39
2022-08-04T16:37:19.058Z,30.36
2022-08-04T16:39:50.786Z,30.35
2022-08-04T16:42:33.004Z,30.37
2022-08-04T16:45:08.273Z,30.33
2022-08-04T16:47:50.033Z,30.28
2022-08-04T16:50:18.065Z,30.16
2022-08-04T16:52:49.664Z,30.17
2022-08-04T16:55:18.158Z,30.19
2022-08-04T16:57:48.586Z,30.18
2022-08-04T17:00:15.735Z,30.08
2022-08-04T17:02:43.478Z,29.97
2022-08-04T17:05:39.727Z,29.69
2022-08-04T17:10:55.133Z,29.21
2022-08-04T17:14:03.634Z,29.34
2022-08-04T17:16:21.146Z,29.30
2022-08-04T17:18:50.202Z,29.08
2022-08-04T17:21:20.000Z,28.72
2022-08-04T17:24:12.705Z,28.68
2022-08-04T17:26:51.576Z,28.46
2022-08-04T17:29:21.570Z,28.40
2022-08-04T17:31:48.210Z,28.34
2022-08-04T17:34:16.790Z,28.43
2022-08-04T17:36:46.006Z,28.44
2022-08-04T17:39:21.429Z,28.37
2022-08-04T17:41:48.883Z,28.50
2022-08-04T17:44:16.702Z,28.39
2022-08-04T17:46:45.702Z,28.23
2022-08-04T17:49:18.611Z,28.12
2022-08-04T17:52:06.564Z,27.86
2022-08-04T17:54:39.347Z,27.55
2022-08-04T17:57:20.050Z,27.36
2022-08-04T17:59:58.507Z,27.06
2022-08-04T18:05:53.979Z,26.72
2022-08-04T18:08:39.427Z,26.65
2022-08-04T18:11:02.038Z,26.44
2022-08-04T18:13:29.223Z,26.25
2022-08-04T18:16:06.193Z,26.14
2022-08-04T18:18:41.299Z,26.03
2022-08-04T18:21:15.837Z,25.89
2022-08-04T18:23:51.083Z,25.86
2022-08-04T18:26:18.200Z,25.78
2022-08-04T18:28:50.659Z,25.78
2022-08-04T18:31:17.154Z,25.64
2022-08-04T18:33:43.815Z,25.57
2022-08-04T18:36:33.962Z,25.42
2022-08-04T18:39:07.907Z,25.36
2022-08-04T18:42:01.649Z,25.40
2022-08-04T18:44:29.140Z,25.42
2022-08-04T18:46:56.642Z,25.33
2022-08-04T18:50:58.603Z,25.15
2022-08-04T18:52:14.905Z,25.12
2022-08-04T18:54:42.139Z,25.16
2022-08-04T18:57:32.647Z,25.15
2022-08-04T18:59:55.938Z,25.02
2022-08-04T19:02:22.818Z,24.92
2022-08-04T19:04:53.215Z,24.81
2022-08-04T19:07:28.831Z,24.75
2022-08-04T19:09:59.366Z,24.60
2022-08-04T19:12:28.223Z,24.50
2022-08-04T19:14:58.795Z,24.35
2022-08-04T19:17:52.842Z,24.20
2022-08-04T19:20:25.490Z,24.10
2022-08-04T19:24:28.871Z,24.07
2022-08-04T19:26:01.115Z,24.02
2022-08-04T19:28:29.291Z,23.98
2022-08-04T19:30:58.062Z,23.97
2022-08-04T19:33:25.267Z,23.87
2022-08-04T19:35:52.589Z,23.87
2022-08-04T19:38:20.601Z,23.82
2022-08-04T19:40:50.665Z,23.79
2022-08-04T19:43:20.732Z,23.72
2022-08-04T19:45:49.694Z,23.73
2022-08-04T19:48:19.517Z,23.60
2022-08-04T19:50:46.550Z,23.57
2022-08-04T19:53:19.022Z,23.53
2022-08-04T19:55:49.793Z,23.48
2022-08-04T19:58:17.032Z,23.35
2022-08-04T20:00:44.777Z,23.31
2022-08-04T20:03:20.095Z,23.18
2022-08-04T20:05:53.860Z,23.06
2022-08-04T20:08:24.176Z,22.94
2022-08-04T20:10:51.982Z,22.93
2022-08-04T20:13:19.834Z,22.83
2022-08-04T20:15:55.454Z,22.72
2022-08-04T20:18:36.101Z,22.67
2022-08-04T20:21:19.513Z,22.55
2022-08-04T20:23:51.399Z,22.43
2022-08-04T20:26:18.135Z,22.39
2022-08-04T20:28:45.922Z,22.31
2022-08-04T20:31:18.747Z,22.26
2022-08-04T20:33:49.265Z,22.18
2022-08-04T20:36:21.957Z,22.13
2022-08-04T20:38:54.728Z,22.07
2022-08-04T20:41:22.271Z,22.11
2022-08-04T20:43:50.077Z,22.09
2022-08-04T20:46:28.588Z,22.11
2022-08-04T20:48:56.389Z,22.03
2022-08-04T20:51:31.648Z,21.90
2022-08-04T20:54:01.091Z,21.96
2022-08-04T20:56:31.283Z,21.91
2022-08-04T20:58:59.641Z,21.91
2022-08-04T21:01:27.242Z,21.82
2022-08-04T21:04:27.977Z,22.03
2022-08-04T21:06:57.386Z,22.15
2022-08-04T21:09:26.706Z,22.16
2022-08-04T21:12:05.064Z,22.05
2022-08-04T21:14:31.596Z,22.02
2022-08-04T21:16:59.290Z,22.10
2022-08-04T21:19:27.527Z,22.22
2022-08-04T21:21:54.680Z,22.27
2022-08-04T21:24:26.023Z,22.18
2022-08-04T21:26:56.581Z,22.16
2022-08-04T21:29:24.372Z,22.09
2022-08-04T21:32:07.539Z,22.09
2022-08-04T21:34:39.038Z,22.18
2022-08-04T21:37:07.152Z,22.12
2022-08-04T21:39:50.704Z,22.05
2022-08-04T21:42:29.011Z,22.11
2022-08-04T21:44:57.681Z,22.08
2022-08-04T21:47:24.358Z,22.04
2022-08-04T21:49:56.591Z,22.02
2022-08-04T21:52:24.466Z,22.12
2022-08-04T21:54:54.222Z,21.99
2022-08-04T21:57:22.765Z,21.98
2022-08-04T21:59:52.043Z,22.03
2022-08-04T22:02:18.652Z,21.97
2022-08-04T22:04:45.325Z,21.91
2022-08-04T22:07:12.287Z,21.92
2022-08-04T22:09:45.673Z,21.95
2022-08-04T22:12:27.202Z,21.92
2022-08-04T22:17:46.200Z,21.90
2022-08-04T22:20:27.628Z,21.87
2022-08-04T22:23:00.145Z,21.88
2022-08-04T22:25:33.306Z,21.80
2022-08-04T22:28:07.719Z,21.79
2022-08-04T22:30:37.460Z,21.69
2022-08-04T22:33:07.735Z,21.69
2022-08-04T22:35:43.149Z,21.80
2022-08-04T22:38:26.853Z,21.84
2022-08-04T22:41:03.472Z,21.71
2022-08-04T22:43:31.834Z,21.74
2022-08-04T22:45:59.719Z,21.80
2022-08-04T22:48:28.383Z,21.66
2022-08-04T22:50:58.820Z,21.64
2022-08-04T22:53:25.280Z,21.65
2022-08-04T22:56:06.880Z,21.59
2022-08-04T22:58:36.246Z,21.59
2022-08-04T23:01:07.536Z,21.60
2022-08-04T23:03:37.548Z,21.61
2022-08-04T23:06:07.124Z,21.61
2022-08-04T23:08:37.844Z,21.49
2022-08-04T23:11:08.169Z,21.46
2022-08-04T23:13:35.933Z,21.46
2022-08-04T23:16:10.267Z,21.43
2022-08-04T23:18:40.248Z,21.43
2022-08-04T23:21:10.218Z,21.44
2022-08-04T23:23:38.133Z,21.45
2022-08-04T23:26:13.531Z,21.36
2022-08-04T23:28:40.381Z,21.35
2022-08-04T23:31:10.319Z,21.36
2022-08-04T23:33:50.809Z,21.31
2022-08-04T23:36:29.458Z,21.30
2022-08-04T23:38:59.895Z,21.20
2022-08-04T23:41:53.767Z,21.17
2022-08-04T23:44:17.533Z,21.21
2022-08-04T23:46:51.103Z,21.12
2022-08-04T23:49:20.020Z,21.02
2022-08-04T23:51:49.666Z,21.14
2022-08-04T23:54:16.318Z,21.07
2022-08-04T23:56:52.568Z,21.08
2022-08-04T23:59:49.149Z,21.13
